sensor_id;sensor_type;location;lat;lon;timestamp;P1;durP1;ratioP1;P2;durP2;ratioP2
79499;SDS011;76397;53.172;18.140;2024-03-22T00:02:15;25.50;;;12.40;;
79499;SDS011;76397;53.172;18.140;2024-03-22T00:04:42;25.00;;;12.50;;
79499;SDS011;76397;53.172;18.140;2024-03-22T00:07:09;22.70;;;11.40;;
79499;SDS011;76397;53.172;18.140;2024-03-22T00:09:35;26.50;;;13.20;;
79499;SDS011;76397;53.172;18.140;2024-03-22T00:12:02;26.70;;;13.40;;
79499;SDS011;76397;53.172;18.140;2024-03-22T00:14:30;27.00;;;12.60;;
79499;SDS011;76397;53.172;18.140;2024-03-22T00:16:56;25.30;;;13.10;;
79499;SDS011;76397;53.172;18.140;2024-03-22T00:19:23;26.20;;;13.00;;
79499;SDS011;76397;53.172;18.140;2024-03-22T00:21:50;21.70;;;12.00;;
79499;SDS011;76397;53.172;18.140;2024-03-22T00:24:16;24.40;;;12.20;;
79499;SDS011;76397;53.172;18.140;2024-03-22T00:26:43;24.80;;;12.50;;
79499;SDS011;76397;53.172;18.140;2024-03-22T00:29:15;23.10;;;12.30;;
79499;SDS011;76397;53.172;18.140;2024-03-22T00:31:42;22.90;;;11.90;;
79499;SDS011;76397;53.172;18.140;2024-03-22T00:34:09;24.30;;;11.90;;
79499;SDS011;76397;53.172;18.140;2024-03-22T00:36:35;24.40;;;12.80;;
79499;SDS011;76397;53.172;18.140;2024-03-22T00:39:03;30.00;;;13.80;;
79499;SDS011;76397;53.172;18.140;2024-03-22T00:41:30;27.10;;;13.60;;
79499;SDS011;76397;53.172;18.140;2024-03-22T00:43:57;24.20;;;11.50;;
79499;SDS011;76397;53.172;18.140;2024-03-22T00:46:24;25.30;;;12.80;;
79499;SDS011;76397;53.172;18.140;2024-03-22T00:48:51;26.80;;;13.30;;
79499;SDS011;76397;53.172;18.140;2024-03-22T00:51:18;27.50;;;14.20;;
79499;SDS011;76397;53.172;18.140;2024-03-22T00:53:45;31.80;;;15.10;;
79499;SDS011;76397;53.172;18.140;2024-03-22T00:56:11;33.70;;;15.30;;
79499;SDS011;76397;53.172;18.140;2024-03-22T00:58:38;39.60;;;17.40;;
79499;SDS011;76397;53.172;18.140;2024-03-22T01:01:05;33.30;;;16.10;;
79499;SDS011;76397;53.172;18.140;2024-03-22T01:03:31;37.10;;;17.30;;
79499;SDS011;76397;53.172;18.140;2024-03-22T01:05:59;41.20;;;18.20;;
79499;SDS011;76397;53.172;18.140;2024-03-22T01:08:26;39.50;;;14.70;;
79499;SDS011;76397;53.172;18.140;2024-03-22T01:10:53;44.50;;;19.30;;
79499;SDS011;76397;53.172;18.140;2024-03-22T01:13:20;35.30;;;15.00;;
79499;SDS011;76397;53.172;18.140;2024-03-22T01:15:47;44.50;;;18.20;;
79499;SDS011;76397;53.172;18.140;2024-03-22T01:18:13;42.20;;;18.20;;
79499;SDS011;76397;53.172;18.140;2024-03-22T01:20:40;46.20;;;19.70;;
79499;SDS011;76397;53.172;18.140;2024-03-22T01:23:08;47.20;;;20.80;;
79499;SDS011;76397;53.172;18.140;2024-03-22T01:25:35;43.30;;;17.40;;
79499;SDS011;76397;53.172;18.140;2024-03-22T01:28:02;42.10;;;17.10;;
79499;SDS011;76397;53.172;18.140;2024-03-22T01:30:30;36.60;;;15.00;;
79499;SDS011;76397;53.172;18.140;2024-03-22T01:32:57;46.90;;;20.10;;
79499;SDS011;76397;53.172;18.140;2024-03-22T01:35:24;51.50;;;19.00;;
79499;SDS011;76397;53.172;18.140;2024-03-22T01:37:51;47.00;;;20.30;;
79499;SDS011;76397;53.172;18.140;2024-03-22T01:40:18;51.20;;;20.00;;
79499;SDS011;76397;53.172;18.140;2024-03-22T01:42:45;46.70;;;19.70;;
79499;SDS011;76397;53.172;18.140;2024-03-22T01:45:13;45.30;;;18.90;;
79499;SDS011;76397;53.172;18.140;2024-03-22T01:47:41;39.10;;;18.20;;
79499;SDS011;76397;53.172;18.140;2024-03-22T01:50:09;43.50;;;18.90;;
79499;SDS011;76397;53.172;18.140;2024-03-22T01:52:39;47.00;;;19.10;;
79499;SDS011;76397;53.172;18.140;2024-03-22T01:55:07;50.80;;;20.40;;
79499;SDS011;76397;53.172;18.140;2024-03-22T01:57:34;51.60;;;20.40;;
79499;SDS011;76397;53.172;18.140;2024-03-22T02:00:01;51.20;;;19.50;;
79499;SDS011;76397;53.172;18.140;2024-03-22T02:02:29;43.70;;;17.40;;
79499;SDS011;76397;53.172;18.140;2024-03-22T02:04:56;50.80;;;20.70;;
79499;SDS011;76397;53.172;18.140;2024-03-22T02:07:24;47.20;;;20.90;;
79499;SDS011;76397;53.172;18.140;2024-03-22T02:09:51;51.10;;;21.30;;
79499;SDS011;76397;53.172;18.140;2024-03-22T02:12:17;50.10;;;19.80;;
79499;SDS011;76397;53.172;18.140;2024-03-22T02:14:44;52.70;;;20.50;;
79499;SDS011;76397;53.172;18.140;2024-03-22T02:17:11;50.10;;;19.60;;
79499;SDS011;76397;53.172;18.140;2024-03-22T02:19:37;48.30;;;19.90;;
79499;SDS011;76397;53.172;18.140;2024-03-22T02:22:04;48.50;;;20.00;;
79499;SDS011;76397;53.172;18.140;2024-03-22T02:24:31;49.30;;;20.90;;
79499;SDS011;76397;53.172;18.140;2024-03-22T02:26:58;53.10;;;21.10;;
79499;SDS011;76397;53.172;18.140;2024-03-22T02:29:24;53.70;;;22.20;;
79499;SDS011;76397;53.172;18.140;2024-03-22T02:31:51;47.30;;;20.10;;
79499;SDS011;76397;53.172;18.140;2024-03-22T02:34:18;55.40;;;20.70;;
79499;SDS011;76397;53.172;18.140;2024-03-22T02:36:44;47.10;;;19.90;;
79499;SDS011;76397;53.172;18.140;2024-03-22T02:39:11;53.50;;;20.70;;
79499;SDS011;76397;53.172;18.140;2024-03-22T02:41:37;48.50;;;19.90;;
79499;SDS011;76397;53.172;18.140;2024-03-22T02:44:04;50.60;;;19.80;;
79499;SDS011;76397;53.172;18.140;2024-03-22T02:46:31;44.20;;;18.30;;
79499;SDS011;76397;53.172;18.140;2024-03-22T02:48:58;45.40;;;19.30;;
79499;SDS011;76397;53.172;18.140;2024-03-22T02:51:24;40.50;;;15.40;;
79499;SDS011;76397;53.172;18.140;2024-03-22T02:53:51;45.00;;;18.40;;
79499;SDS011;76397;53.172;18.140;2024-03-22T02:56:18;41.40;;;17.90;;
79499;SDS011;76397;53.172;18.140;2024-03-22T02:58:44;42.80;;;17.50;;
79499;SDS011;76397;53.172;18.140;2024-03-22T03:01:11;43.20;;;19.00;;
79499;SDS011;76397;53.172;18.140;2024-03-22T03:03:38;44.00;;;18.00;;
79499;SDS011;76397;53.172;18.140;2024-03-22T03:06:04;41.50;;;17.90;;
79499;SDS011;76397;53.172;18.140;2024-03-22T03:08:32;41.10;;;16.70;;
79499;SDS011;76397;53.172;18.140;2024-03-22T03:10:58;41.40;;;17.40;;
79499;SDS011;76397;53.172;18.140;2024-03-22T03:13:25;41.90;;;17.80;;
79499;SDS011;76397;53.172;18.140;2024-03-22T03:15:52;42.00;;;16.70;;
79499;SDS011;76397;53.172;18.140;2024-03-22T03:18:19;42.60;;;17.80;;
79499;SDS011;76397;53.172;18.140;2024-03-22T03:20:45;40.10;;;17.60;;
79499;SDS011;76397;53.172;18.140;2024-03-22T03:23:12;37.00;;;17.00;;
79499;SDS011;76397;53.172;18.140;2024-03-22T03:25:39;39.70;;;15.60;;
79499;SDS011;76397;53.172;18.140;2024-03-22T03:28:05;37.10;;;15.00;;
79499;SDS011;76397;53.172;18.140;2024-03-22T03:30:37;33.50;;;14.90;;
79499;SDS011;76397;53.172;18.140;2024-03-22T03:33:03;36.60;;;15.50;;
79499;SDS011;76397;53.172;18.140;2024-03-22T03:35:30;40.40;;;16.40;;
79499;SDS011;76397;53.172;18.140;2024-03-22T03:37:57;40.00;;;17.20;;
79499;SDS011;76397;53.172;18.140;2024-03-22T03:40:24;38.20;;;16.90;;
79499;SDS011;76397;53.172;18.140;2024-03-22T03:42:51;37.20;;;15.90;;
79499;SDS011;76397;53.172;18.140;2024-03-22T03:45:17;32.50;;;14.40;;
79499;SDS011;76397;53.172;18.140;2024-03-22T03:47:44;36.80;;;16.50;;
79499;SDS011;76397;53.172;18.140;2024-03-22T03:50:11;32.30;;;14.30;;
79499;SDS011;76397;53.172;18.140;2024-03-22T03:52:38;33.20;;;14.10;;
79499;SDS011;76397;53.172;18.140;2024-03-22T03:55:05;32.60;;;15.00;;
79499;SDS011;76397;53.172;18.140;2024-03-22T03:57:32;31.10;;;13.90;;
79499;SDS011;76397;53.172;18.140;2024-03-22T03:59:59;34.80;;;15.80;;
79499;SDS011;76397;53.172;18.140;2024-03-22T04:02:26;37.70;;;15.10;;
79499;SDS011;76397;53.172;18.140;2024-03-22T04:04:53;35.20;;;15.60;;
79499;SDS011;76397;53.172;18.140;2024-03-22T04:07:20;33.80;;;15.00;;
79499;SDS011;76397;53.172;18.140;2024-03-22T04:09:47;34.50;;;14.70;;
79499;SDS011;76397;53.172;18.140;2024-03-22T04:12:14;34.10;;;14.30;;
79499;SDS011;76397;53.172;18.140;2024-03-22T04:14:41;39.10;;;16.90;;
79499;SDS011;76397;53.172;18.140;2024-03-22T04:17:07;32.20;;;15.00;;
79499;SDS011;76397;53.172;18.140;2024-03-22T04:19:34;39.90;;;16.90;;
79499;SDS011;76397;53.172;18.140;2024-03-22T04:22:01;36.70;;;15.00;;
79499;SDS011;76397;53.172;18.140;2024-03-22T04:24:28;38.60;;;16.60;;
79499;SDS011;76397;53.172;18.140;2024-03-22T04:26:54;34.80;;;14.30;;
79499;SDS011;76397;53.172;18.140;2024-03-22T04:29:21;32.50;;;15.50;;
79499;SDS011;76397;53.172;18.140;2024-03-22T04:31:48;39.70;;;15.60;;
79499;SDS011;76397;53.172;18.140;2024-03-22T04:34:14;36.50;;;15.40;;
79499;SDS011;76397;53.172;18.140;2024-03-22T04:36:41;38.30;;;16.40;;
79499;SDS011;76397;53.172;18.140;2024-03-22T04:39:07;38.20;;;16.70;;
79499;SDS011;76397;53.172;18.140;2024-03-22T04:41:36;35.10;;;14.20;;
79499;SDS011;76397;53.172;18.140;2024-03-22T04:44:03;39.60;;;16.60;;
79499;SDS011;76397;53.172;18.140;2024-03-22T04:46:30;43.40;;;17.10;;
79499;SDS011;76397;53.172;18.140;2024-03-22T04:48:56;38.50;;;16.70;;
79499;SDS011;76397;53.172;18.140;2024-03-22T04:51:23;45.60;;;17.30;;
79499;SDS011;76397;53.172;18.140;2024-03-22T04:53:50;34.80;;;13.80;;
79499;SDS011;76397;53.172;18.140;2024-03-22T04:56:16;40.80;;;16.80;;
79499;SDS011;76397;53.172;18.140;2024-03-22T04:58:43;39.90;;;15.70;;
79499;SDS011;76397;53.172;18.140;2024-03-22T05:01:10;37.00;;;15.00;;
79499;SDS011;76397;53.172;18.140;2024-03-22T05:03:39;35.90;;;15.20;;
79499;SDS011;76397;53.172;18.140;2024-03-22T05:06:07;34.30;;;13.90;;
79499;SDS011;76397;53.172;18.140;2024-03-22T05:08:34;34.10;;;14.10;;
79499;SDS011;76397;53.172;18.140;2024-03-22T05:11:00;35.30;;;14.30;;
79499;SDS011;76397;53.172;18.140;2024-03-22T05:13:27;45.30;;;17.20;;
79499;SDS011;76397;53.172;18.140;2024-03-22T05:15:54;42.90;;;16.50;;
79499;SDS011;76397;53.172;18.140;2024-03-22T05:18:21;36.80;;;14.90;;
79499;SDS011;76397;53.172;18.140;2024-03-22T05:20:47;34.20;;;15.10;;
79499;SDS011;76397;53.172;18.140;2024-03-22T05:23:14;36.20;;;14.70;;
79499;SDS011;76397;53.172;18.140;2024-03-22T05:25:42;30.40;;;12.90;;
79499;SDS011;76397;53.172;18.140;2024-03-22T05:28:09;28.40;;;12.30;;
79499;SDS011;76397;53.172;18.140;2024-03-22T05:30:36;32.10;;;13.60;;
79499;SDS011;76397;53.172;18.140;2024-03-22T05:33:03;30.40;;;12.80;;
79499;SDS011;76397;53.172;18.140;2024-03-22T05:35:29;26.90;;;12.80;;
79499;SDS011;76397;53.172;18.140;2024-03-22T05:37:56;28.90;;;12.30;;
79499;SDS011;76397;53.172;18.140;2024-03-22T05:40:23;30.80;;;13.20;;
79499;SDS011;76397;53.172;18.140;2024-03-22T05:42:50;28.00;;;11.90;;
79499;SDS011;76397;53.172;18.140;2024-03-22T05:45:16;40.70;;;17.40;;
79499;SDS011;76397;53.172;18.140;2024-03-22T05:47:43;26.10;;;10.50;;
79499;SDS011;76397;53.172;18.140;2024-03-22T05:50:10;23.90;;;9.10;;
79499;SDS011;76397;53.172;18.140;2024-03-22T05:52:36;27.70;;;11.30;;
79499;SDS011;76397;53.172;18.140;2024-03-22T05:55:04;27.70;;;9.50;;
79499;SDS011;76397;53.172;18.140;2024-03-22T05:57:31;26.30;;;11.10;;
79499;SDS011;76397;53.172;18.140;2024-03-22T05:59:58;23.80;;;10.10;;
79499;SDS011;76397;53.172;18.140;2024-03-22T06:02:25;21.70;;;9.30;;
79499;SDS011;76397;53.172;18.140;2024-03-22T06:04:51;23.70;;;9.70;;
79499;SDS011;76397;53.172;18.140;2024-03-22T06:07:18;25.00;;;9.80;;
79499;SDS011;76397;53.172;18.140;2024-03-22T06:09:45;25.40;;;9.50;;
79499;SDS011;76397;53.172;18.140;2024-03-22T06:12:13;25.10;;;8.50;;
79499;SDS011;76397;53.172;18.140;2024-03-22T06:14:40;25.70;;;9.10;;
79499;SDS011;76397;53.172;18.140;2024-03-22T06:17:09;21.50;;;9.00;;
79499;SDS011;76397;53.172;18.140;2024-03-22T06:19:36;25.50;;;9.30;;
79499;SDS011;76397;53.172;18.140;2024-03-22T06:22:03;21.50;;;9.30;;
79499;SDS011;76397;53.172;18.140;2024-03-22T06:24:30;19.70;;;8.00;;
79499;SDS011;76397;53.172;18.140;2024-03-22T06:26:57;23.00;;;8.90;;
79499;SDS011;76397;53.172;18.140;2024-03-22T06:29:24;21.90;;;8.20;;
79499;SDS011;76397;53.172;18.140;2024-03-22T06:31:51;24.70;;;9.40;;
79499;SDS011;76397;53.172;18.140;2024-03-22T06:34:18;21.20;;;9.50;;
79499;SDS011;76397;53.172;18.140;2024-03-22T06:36:46;19.20;;;8.30;;
79499;SDS011;76397;53.172;18.140;2024-03-22T06:39:14;19.80;;;7.90;;
79499;SDS011;76397;53.172;18.140;2024-03-22T06:41:41;18.30;;;7.50;;
79499;SDS011;76397;53.172;18.140;2024-03-22T06:44:07;22.30;;;8.60;;
79499;SDS011;76397;53.172;18.140;2024-03-22T06:46:39;21.90;;;7.60;;
79499;SDS011;76397;53.172;18.140;2024-03-22T06:49:06;22.90;;;9.80;;
79499;SDS011;76397;53.172;18.140;2024-03-22T06:51:32;22.30;;;8.20;;
79499;SDS011;76397;53.172;18.140;2024-03-22T06:53:59;20.70;;;8.10;;
79499;SDS011;76397;53.172;18.140;2024-03-22T06:56:26;25.60;;;8.90;;
79499;SDS011;76397;53.172;18.140;2024-03-22T06:58:53;23.30;;;9.20;;
79499;SDS011;76397;53.172;18.140;2024-03-22T07:01:19;20.80;;;8.30;;
79499;SDS011;76397;53.172;18.140;2024-03-22T07:03:47;17.90;;;7.80;;
79499;SDS011;76397;53.172;18.140;2024-03-22T07:06:14;22.10;;;8.30;;
79499;SDS011;76397;53.172;18.140;2024-03-22T07:08:41;26.60;;;9.60;;
79499;SDS011;76397;53.172;18.140;2024-03-22T07:11:08;26.50;;;10.70;;
79499;SDS011;76397;53.172;18.140;2024-03-22T07:13:35;23.50;;;10.50;;
79499;SDS011;76397;53.172;18.140;2024-03-22T07:16:03;27.00;;;10.20;;
79499;SDS011;76397;53.172;18.140;2024-03-22T07:18:30;20.40;;;8.10;;
79499;SDS011;76397;53.172;18.140;2024-03-22T07:20:57;21.80;;;9.00;;
79499;SDS011;76397;53.172;18.140;2024-03-22T07:23:28;26.50;;;11.20;;
79499;SDS011;76397;53.172;18.140;2024-03-22T07:25:55;27.30;;;11.80;;
79499;SDS011;76397;53.172;18.140;2024-03-22T07:28:21;25.80;;;10.60;;
79499;SDS011;76397;53.172;18.140;2024-03-22T07:30:48;23.10;;;9.90;;
79499;SDS011;76397;53.172;18.140;2024-03-22T07:33:15;21.00;;;9.50;;
79499;SDS011;76397;53.172;18.140;2024-03-22T07:35:44;22.70;;;10.50;;
79499;SDS011;76397;53.172;18.140;2024-03-22T07:38:11;24.70;;;11.60;;
79499;SDS011;76397;53.172;18.140;2024-03-22T07:40:37;23.30;;;9.00;;
79499;SDS011;76397;53.172;18.140;2024-03-22T07:43:04;19.40;;;7.40;;
79499;SDS011;76397;53.172;18.140;2024-03-22T07:45:34;24.10;;;10.00;;
79499;SDS011;76397;53.172;18.140;2024-03-22T07:48:02;19.80;;;9.40;;
79499;SDS011;76397;53.172;18.140;2024-03-22T07:50:29;22.30;;;10.40;;
79499;SDS011;76397;53.172;18.140;2024-03-22T07:52:55;20.70;;;9.30;;
79499;SDS011;76397;53.172;18.140;2024-03-22T07:55:22;20.80;;;8.50;;
79499;SDS011;76397;53.172;18.140;2024-03-22T07:57:50;17.50;;;8.20;;
79499;SDS011;76397;53.172;18.140;2024-03-22T08:00:17;22.70;;;9.60;;
79499;SDS011;76397;53.172;18.140;2024-03-22T08:02:45;19.60;;;8.30;;
79499;SDS011;76397;53.172;18.140;2024-03-22T08:05:11;15.30;;;6.50;;
79499;SDS011;76397;53.172;18.140;2024-03-22T08:07:38;20.50;;;9.10;;
79499;SDS011;76397;53.172;18.140;2024-03-22T08:10:05;21.40;;;9.30;;
79499;SDS011;76397;53.172;18.140;2024-03-22T08:12:32;19.80;;;9.10;;
79499;SDS011;76397;53.172;18.140;2024-03-22T08:15:00;21.50;;;9.30;;
79499;SDS011;76397;53.172;18.140;2024-03-22T08:17:26;20.00;;;9.60;;
79499;SDS011;76397;53.172;18.140;2024-03-22T08:19:53;21.00;;;8.80;;
79499;SDS011;76397;53.172;18.140;2024-03-22T08:22:19;17.30;;;8.40;;
79499;SDS011;76397;53.172;18.140;2024-03-22T08:24:46;20.50;;;9.20;;
79499;SDS011;76397;53.172;18.140;2024-03-22T08:27:13;16.10;;;7.50;;
79499;SDS011;76397;53.172;18.140;2024-03-22T08:29:40;19.20;;;8.30;;
79499;SDS011;76397;53.172;18.140;2024-03-22T08:32:07;26.70;;;11.40;;
79499;SDS011;76397;53.172;18.140;2024-03-22T08:34:34;20.70;;;9.10;;
79499;SDS011;76397;53.172;18.140;2024-03-22T08:37:01;19.40;;;9.40;;
79499;SDS011;76397;53.172;18.140;2024-03-22T08:39:30;18.20;;;8.70;;
79499;SDS011;76397;53.172;18.140;2024-03-22T08:41:57;20.50;;;9.90;;
79499;SDS011;76397;53.172;18.140;2024-03-22T08:44:24;18.90;;;8.40;;
79499;SDS011;76397;53.172;18.140;2024-03-22T08:46:51;21.10;;;9.90;;
79499;SDS011;76397;53.172;18.140;2024-03-22T08:49:18;18.90;;;9.80;;
79499;SDS011;76397;53.172;18.140;2024-03-22T08:51:46;15.10;;;6.90;;
79499;SDS011;76397;53.172;18.140;2024-03-22T08:54:14;25.10;;;9.30;;
79499;SDS011;76397;53.172;18.140;2024-03-22T08:56:41;15.30;;;7.40;;
79499;SDS011;76397;53.172;18.140;2024-03-22T08:59:07;20.30;;;9.70;;
79499;SDS011;76397;53.172;18.140;2024-03-22T09:01:34;20.70;;;8.70;;
79499;SDS011;76397;53.172;18.140;2024-03-22T09:04:02;16.50;;;7.00;;
79499;SDS011;76397;53.172;18.140;2024-03-22T09:06:29;19.00;;;8.50;;
79499;SDS011;76397;53.172;18.140;2024-03-22T09:08:56;23.40;;;11.40;;
79499;SDS011;76397;53.172;18.140;2024-03-22T09:11:24;19.60;;;10.20;;
79499;SDS011;76397;53.172;18.140;2024-03-22T09:13:52;18.80;;;10.00;;
79499;SDS011;76397;53.172;18.140;2024-03-22T09:16:20;18.00;;;9.70;;
79499;SDS011;76397;53.172;18.140;2024-03-22T09:18:47;19.80;;;9.10;;
79499;SDS011;76397;53.172;18.140;2024-03-22T09:21:14;20.20;;;10.20;;
79499;SDS011;76397;53.172;18.140;2024-03-22T09:23:41;21.00;;;10.60;;
79499;SDS011;76397;53.172;18.140;2024-03-22T09:26:08;21.00;;;9.80;;
79499;SDS011;76397;53.172;18.140;2024-03-22T09:28:34;18.60;;;9.90;;
79499;SDS011;76397;53.172;18.140;2024-03-22T09:31:05;22.90;;;10.70;;
79499;SDS011;76397;53.172;18.140;2024-03-22T09:33:33;23.10;;;11.50;;
79499;SDS011;76397;53.172;18.140;2024-03-22T09:36:01;20.60;;;10.60;;
79499;SDS011;76397;53.172;18.140;2024-03-22T09:38:28;19.50;;;8.80;;
79499;SDS011;76397;53.172;18.140;2024-03-22T09:40:56;20.40;;;10.20;;
79499;SDS011;76397;53.172;18.140;2024-03-22T09:43:22;17.70;;;7.90;;
79499;SDS011;76397;53.172;18.140;2024-03-22T09:45:51;16.50;;;6.90;;
79499;SDS011;76397;53.172;18.140;2024-03-22T09:48:19;20.60;;;9.40;;
79499;SDS011;76397;53.172;18.140;2024-03-22T09:50:46;20.00;;;9.90;;
79499;SDS011;76397;53.172;18.140;2024-03-22T09:53:18;22.40;;;9.90;;
79499;SDS011;76397;53.172;18.140;2024-03-22T09:55:49;20.00;;;10.00;;
79499;SDS011;76397;53.172;18.140;2024-03-22T09:58:18;24.20;;;9.70;;
79499;SDS011;76397;53.172;18.140;2024-03-22T10:00:46;19.90;;;9.10;;
79499;SDS011;76397;53.172;18.140;2024-03-22T10:03:13;20.70;;;10.10;;
79499;SDS011;76397;53.172;18.140;2024-03-22T10:05:40;17.40;;;8.80;;
79499;SDS011;76397;53.172;18.140;2024-03-22T10:08:07;21.40;;;11.00;;
79499;SDS011;76397;53.172;18.140;2024-03-22T10:10:33;20.20;;;10.70;;
79499;SDS011;76397;53.172;18.140;2024-03-22T10:13:01;19.60;;;9.20;;
79499;SDS011;76397;53.172;18.140;2024-03-22T10:15:31;21.20;;;9.30;;
79499;SDS011;76397;53.172;18.140;2024-03-22T10:17:57;19.50;;;10.20;;
79499;SDS011;76397;53.172;18.140;2024-03-22T10:20:25;22.00;;;11.80;;
79499;SDS011;76397;53.172;18.140;2024-03-22T10:22:56;23.00;;;12.20;;
79499;SDS011;76397;53.172;18.140;2024-03-22T10:25:28;17.70;;;8.90;;
79499;SDS011;76397;53.172;18.140;2024-03-22T10:27:56;22.60;;;12.20;;
79499;SDS011;76397;53.172;18.140;2024-03-22T10:30:25;15.70;;;7.70;;
79499;SDS011;76397;53.172;18.140;2024-03-22T10:32:53;18.50;;;9.00;;
79499;SDS011;76397;53.172;18.140;2024-03-22T10:35:20;19.00;;;9.80;;
79499;SDS011;76397;53.172;18.140;2024-03-22T10:37:49;17.90;;;9.10;;
79499;SDS011;76397;53.172;18.140;2024-03-22T10:40:17;22.70;;;11.90;;
79499;SDS011;76397;53.172;18.140;2024-03-22T10:42:44;19.00;;;10.20;;
79499;SDS011;76397;53.172;18.140;2024-03-22T10:45:12;21.20;;;10.20;;
79499;SDS011;76397;53.172;18.140;2024-03-22T10:47:39;23.40;;;11.50;;
79499;SDS011;76397;53.172;18.140;2024-03-22T10:50:08;24.10;;;12.40;;
79499;SDS011;76397;53.172;18.140;2024-03-22T10:55:35;20.10;;;10.20;;
79499;SDS011;76397;53.172;18.140;2024-03-22T10:58:04;21.70;;;11.30;;
79499;SDS011;76397;53.172;18.140;2024-03-22T11:00:34;23.80;;;11.70;;
79499;SDS011;76397;53.172;18.140;2024-03-22T11:03:04;18.60;;;10.10;;
79499;SDS011;76397;53.172;18.140;2024-03-22T11:05:31;23.10;;;11.80;;
79499;SDS011;76397;53.172;18.140;2024-03-22T11:08:05;25.00;;;12.50;;
79499;SDS011;76397;53.172;18.140;2024-03-22T11:10:35;21.90;;;10.70;;
79499;SDS011;76397;53.172;18.140;2024-03-22T11:13:04;19.10;;;9.20;;
79499;SDS011;76397;53.172;18.140;2024-03-22T11:15:33;24.30;;;11.10;;
79499;SDS011;76397;53.172;18.140;2024-03-22T11:18:02;21.40;;;9.60;;
79499;SDS011;76397;53.172;18.140;2024-03-22T11:20:29;23.20;;;11.70;;
79499;SDS011;76397;53.172;18.140;2024-03-22T11:22:56;18.90;;;8.80;;
79499;SDS011;76397;53.172;18.140;2024-03-22T11:25:23;15.30;;;7.60;;
79499;SDS011;76397;53.172;18.140;2024-03-22T11:27:50;19.50;;;9.60;;
79499;SDS011;76397;53.172;18.140;2024-03-22T11:30:17;16.90;;;8.30;;
79499;SDS011;76397;53.172;18.140;2024-03-22T11:32:44;24.20;;;10.70;;
79499;SDS011;76397;53.172;18.140;2024-03-22T11:35:13;19.80;;;9.60;;
79499;SDS011;76397;53.172;18.140;2024-03-22T11:37:41;22.40;;;10.70;;
79499;SDS011;76397;53.172;18.140;2024-03-22T11:40:09;16.50;;;8.40;;
79499;SDS011;76397;53.172;18.140;2024-03-22T11:42:41;21.90;;;9.40;;
79499;SDS011;76397;53.172;18.140;2024-03-22T11:45:10;32.80;;;14.90;;
79499;SDS011;76397;53.172;18.140;2024-03-22T11:47:38;31.50;;;14.40;;
79499;SDS011;76397;53.172;18.140;2024-03-22T11:50:05;25.20;;;11.90;;
79499;SDS011;76397;53.172;18.140;2024-03-22T11:52:35;21.50;;;10.50;;
79499;SDS011;76397;53.172;18.140;2024-03-22T11:55:02;24.40;;;11.50;;
79499;SDS011;76397;53.172;18.140;2024-03-22T11:57:30;20.10;;;10.10;;
79499;SDS011;76397;53.172;18.140;2024-03-22T12:00:01;24.20;;;11.60;;
79499;SDS011;76397;53.172;18.140;2024-03-22T12:02:38;22.30;;;10.10;;
79499;SDS011;76397;53.172;18.140;2024-03-22T12:05:06;25.50;;;12.20;;
79499;SDS011;76397;53.172;18.140;2024-03-22T12:07:34;23.00;;;9.90;;
79499;SDS011;76397;53.172;18.140;2024-03-22T12:10:00;26.00;;;11.70;;
79499;SDS011;76397;53.172;18.140;2024-03-22T12:12:27;24.90;;;12.00;;
79499;SDS011;76397;53.172;18.140;2024-03-22T12:14:54;21.70;;;10.80;;
79499;SDS011;76397;53.172;18.140;2024-03-22T12:17:21;24.90;;;12.90;;
79499;SDS011;76397;53.172;18.140;2024-03-22T12:19:48;27.00;;;13.30;;
79499;SDS011;76397;53.172;18.140;2024-03-22T12:22:14;24.00;;;11.80;;
79499;SDS011;76397;53.172;18.140;2024-03-22T12:24:41;24.60;;;11.90;;
79499;SDS011;76397;53.172;18.140;2024-03-22T12:27:08;23.80;;;11.50;;
79499;SDS011;76397;53.172;18.140;2024-03-22T12:29:35;19.00;;;8.40;;
79499;SDS011;76397;53.172;18.140;2024-03-22T12:32:02;24.50;;;12.10;;
79499;SDS011;76397;53.172;18.140;2024-03-22T12:34:30;22.70;;;11.60;;
79499;SDS011;76397;53.172;18.140;2024-03-22T12:36:59;24.00;;;11.10;;
79499;SDS011;76397;53.172;18.140;2024-03-22T12:39:26;21.90;;;11.60;;
79499;SDS011;76397;53.172;18.140;2024-03-22T12:41:53;24.20;;;13.10;;
79499;SDS011;76397;53.172;18.140;2024-03-22T12:44:20;25.00;;;12.80;;
79499;SDS011;76397;53.172;18.140;2024-03-22T12:46:47;20.40;;;11.20;;
79499;SDS011;76397;53.172;18.140;2024-03-22T12:49:14;25.60;;;11.80;;
79499;SDS011;76397;53.172;18.140;2024-03-22T12:51:41;24.20;;;12.60;;
79499;SDS011;76397;53.172;18.140;2024-03-22T12:54:09;24.10;;;12.00;;
79499;SDS011;76397;53.172;18.140;2024-03-22T12:56:37;27.20;;;12.50;;
79499;SDS011;76397;53.172;18.140;2024-03-22T12:59:05;23.20;;;11.60;;
79499;SDS011;76397;53.172;18.140;2024-03-22T13:01:34;24.80;;;13.70;;
79499;SDS011;76397;53.172;18.140;2024-03-22T13:04:03;23.50;;;13.20;;
79499;SDS011;76397;53.172;18.140;2024-03-22T13:06:30;23.30;;;11.50;;
79499;SDS011;76397;53.172;18.140;2024-03-22T13:09:00;21.60;;;11.70;;
79499;SDS011;76397;53.172;18.140;2024-03-22T13:11:32;22.20;;;12.30;;
79499;SDS011;76397;53.172;18.140;2024-03-22T13:13:58;23.70;;;11.80;;
79499;SDS011;76397;53.172;18.140;2024-03-22T13:16:25;20.90;;;10.90;;
79499;SDS011;76397;53.172;18.140;2024-03-22T13:18:52;27.30;;;13.10;;
79499;SDS011;76397;53.172;18.140;2024-03-22T13:21:18;24.90;;;13.20;;
79499;SDS011;76397;53.172;18.140;2024-03-22T13:23:45;21.70;;;12.00;;
79499;SDS011;76397;53.172;18.140;2024-03-22T13:26:12;23.00;;;10.30;;
79499;SDS011;76397;53.172;18.140;2024-03-22T13:28:39;23.60;;;11.60;;
79499;SDS011;76397;53.172;18.140;2024-03-22T13:31:08;23.40;;;11.60;;
79499;SDS011;76397;53.172;18.140;2024-03-22T13:33:35;22.50;;;11.00;;
79499;SDS011;76397;53.172;18.140;2024-03-22T13:36:03;24.50;;;11.60;;
79499;SDS011;76397;53.172;18.140;2024-03-22T13:38:31;25.30;;;12.50;;
79499;SDS011;76397;53.172;18.140;2024-03-22T13:40:58;23.00;;;11.80;;
79499;SDS011;76397;53.172;18.140;2024-03-22T13:43:27;25.80;;;11.70;;
79499;SDS011;76397;53.172;18.140;2024-03-22T13:45:54;18.30;;;8.80;;
79499;SDS011;76397;53.172;18.140;2024-03-22T13:48:22;20.60;;;11.10;;
79499;SDS011;76397;53.172;18.140;2024-03-22T13:50:53;25.20;;;12.40;;
79499;SDS011;76397;53.172;18.140;2024-03-22T13:53:22;24.60;;;11.10;;
79499;SDS011;76397;53.172;18.140;2024-03-22T13:55:50;17.50;;;8.60;;
79499;SDS011;76397;53.172;18.140;2024-03-22T13:58:19;24.20;;;11.10;;
79499;SDS011;76397;53.172;18.140;2024-03-22T14:00:47;19.20;;;9.10;;
79499;SDS011;76397;53.172;18.140;2024-03-22T14:03:14;27.10;;;13.40;;
79499;SDS011;76397;53.172;18.140;2024-03-22T14:05:40;21.30;;;9.40;;
79499;SDS011;76397;53.172;18.140;2024-03-22T14:08:07;17.70;;;8.00;;
79499;SDS011;76397;53.172;18.140;2024-03-22T14:10:34;20.10;;;9.30;;
79499;SDS011;76397;53.172;18.140;2024-03-22T14:13:01;19.40;;;8.20;;
79499;SDS011;76397;53.172;18.140;2024-03-22T14:15:28;24.10;;;10.50;;
79499;SDS011;76397;53.172;18.140;2024-03-22T14:17:58;19.60;;;9.20;;